Time;durP1;ratioP1;P1;durP2;ratioP2;P2;SDS_P1;SDS_P2;PMS_P1;PMS_P2;Temp;Humidity;BMP_temperature;BMP_pressure;BME280_temperature;BME280_humidity;BME280_pressure;Samples;Min_cycle;Max_cycle;Signal;HPM_P1;HPM_P2
2022/10/28 02:46:49;;;;;;;12.77;5.95;;;12.60;99.90;;;;;;5593594;23;88093;-85
2022/10/28 02:49:15;;;;;;;14.90;6.60;;;12.60;99.90;;;;;;4862070;29;86379;-85
2022/10/28 02:51:51;;;;;;;14.68;6.63;;;12.60;99.90;;;;;;4866171;29;91627;-86
2022/10/28 02:54:21;;;;;;;18.23;6.25;;;12.60;99.90;;;;;;4867708;29;90223;-87
2022/10/28 02:57:09;;;;;;;19.38;7.57;;;12.60;99.90;;;;;;4870344;29;86668;-86
2022/10/28 02:59:35;;;;;;;18.52;6.53;;;12.60;99.90;;;;;;4869375;28;86347;-85
2022/10/28 03:02:01;;;;;;;17.63;6.22;;;12.50;99.90;;;;;;4869500;29;86991;-85
2022/10/28 03:04:27;;;;;;;18.90;7.22;;;12.50;99.90;;;;;;4868926;29;87588;-86
2022/10/28 03:06:53;;;;;;;18.30;7.05;;;12.50;99.90;;;;;;4869388;29;86250;-87
2022/10/28 03:09:18;;;;;;;16.75;5.78;;;12.50;99.90;;;;;;4867858;29;85648;-86
2022/10/28 03:11:44;;;;;;;16.50;8.02;;;12.40;99.90;;;;;;4868318;28;90534;-85
2022/10/28 03:14:09;;;;;;;23.58;8.52;;;12.40;99.90;;;;;;4870391;28;87519;-86
2022/10/28 03:16:35;;;;;;;13.07;6.25;;;12.40;99.90;;;;;;4868157;28;87363;-86
2022/10/28 03:19:01;;;;;;;14.98;6.85;;;12.40;99.90;;;;;;4868085;28;86866;-86
2022/10/28 03:21:26;;;;;;;16.17;6.97;;;12.40;99.90;;;;;;4868947;29;87574;-85
2022/10/28 03:23:52;;;;;;;16.67;7.30;;;12.40;99.90;;;;;;4868009;28;89652;-87
2022/10/28 03:26:18;;;;;;;21.98;7.88;;;12.30;99.90;;;;;;4863707;29;86873;-88
2022/10/28 03:28:43;;;;;;;15.32;6.93;;;12.40;99.90;;;;;;4864687;28;86671;-88
2022/10/28 03:31:09;;;;;;;25.35;7.53;;;12.40;99.90;;;;;;4865004;28;90729;-90
2022/10/28 03:33:35;;;;;;;16.00;7.60;;;12.40;99.90;;;;;;4869290;29;88669;-88
2022/10/28 03:36:00;;;;;;;19.77;8.23;;;12.40;99.90;;;;;;4867152;29;87023;-85
2022/10/28 03:38:26;;;;;;;15.57;7.05;;;12.40;99.90;;;;;;4866725;29;86383;-86
2022/10/28 03:40:52;;;;;;;19.30;8.18;;;12.40;99.90;;;;;;4866148;29;90657;-86
2022/10/28 03:43:17;;;;;;;17.48;7.53;;;12.30;99.90;;;;;;4867925;28;91668;-86
2022/10/28 03:45:43;;;;;;;17.67;9.02;;;12.30;99.90;;;;;;4868267;28;86215;-86
2022/10/28 03:48:09;;;;;;;24.65;9.00;;;12.20;99.90;;;;;;4868558;29;86284;-86
2022/10/28 03:50:35;;;;;;;14.48;7.25;;;12.20;99.90;;;;;;4885567;28;87584;-87
2022/10/28 03:53:00;;;;;;;18.25;7.63;;;12.20;99.90;;;;;;4868465;28;88682;-86
2022/10/28 03:55:26;;;;;;;16.13;7.35;;;12.20;99.90;;;;;;4868865;28;86444;-84
2022/10/28 03:57:52;;;;;;;17.63;8.10;;;12.20;99.90;;;;;;4870758;28;86776;-84
2022/10/28 04:00:18;;;;;;;18.92;7.45;;;12.20;99.90;;;;;;4865313;29;89047;-85
2022/10/28 04:02:51;;;;;;;23.88;8.20;;;12.10;99.90;;;;;;4864500;28;87710;-85
2022/10/28 04:05:18;;;;;;;15.98;7.95;;;12.10;99.90;;;;;;4866998;28;87208;-84
2022/10/28 04:07:43;;;;;;;19.45;7.80;;;12.00;99.90;;;;;;4865480;29;86328;-84
2022/10/28 04:10:09;;;;;;;17.13;6.65;;;12.00;99.90;;;;;;4865221;28;89855;-85
2022/10/28 04:12:35;;;;;;;19.63;7.20;;;12.00;99.90;;;;;;4855040;29;89050;-84
2022/10/28 04:15:01;;;;;;;13.05;6.57;;;12.00;99.90;;;;;;4854924;28;86273;-84
2022/10/28 04:17:27;;;;;;;16.42;7.40;;;12.00;99.90;;;;;;4861462;29;86388;-84
2022/10/28 04:19:52;;;;;;;20.77;7.70;;;11.90;99.90;;;;;;4867376;29;87209;-86
2022/10/28 04:22:18;;;;;;;19.25;6.95;;;11.90;99.90;;;;;;4867428;28;89543;-86
2022/10/28 04:24:45;;;;;;;19.23;7.65;;;11.90;99.90;;;;;;4859829;28;86673;-86
2022/10/28 04:27:10;;;;;;;23.45;9.02;;;11.90;99.90;;;;;;4876089;28;86794;-85
2022/10/28 04:29:36;;;;;;;45.70;11.48;;;12.00;99.90;;;;;;4855443;28;89293;-85
2022/10/28 04:32:02;;;;;;;39.13;11.13;;;12.10;99.90;;;;;;4876551;28;90549;-85
2022/10/28 04:34:28;;;;;;;62.17;11.07;;;12.10;99.90;;;;;;4866757;29;86227;-85
2022/10/28 04:36:53;;;;;;;42.38;9.32;;;12.20;99.90;;;;;;4864597;28;86326;-85
2022/10/28 04:39:19;;;;;;;130.38;10.07;;;12.20;99.90;;;;;;4864663;29;89849;-85
2022/10/28 04:41:45;;;;;;;204.77;12.40;;;12.30;99.90;;;;;;4865881;29;87231;-85
2022/10/28 04:44:10;;;;;;;84.63;8.88;;;12.30;99.90;;;;;;4864578;29;86529;-85
2022/10/28 04:46:36;;;;;;;213.38;11.65;;;12.30;99.90;;;;;;4865327;29;86312;-85
2022/10/28 04:49:02;;;;;;;116.07;9.48;;;12.20;99.90;;;;;;4864410;28;88001;-85
2022/10/28 04:51:27;;;;;;;256.60;12.85;;;12.20;99.90;;;;;;4866008;28;88147;-88
2022/10/28 04:53:53;;;;;;;258.08;14.73;;;12.20;99.90;;;;;;4865585;28;87294;-86
2022/10/28 04:56:20;;;;;;;29.92;5.90;;;12.30;99.90;;;;;;4865177;28;86907;-86
2022/10/28 04:58:46;;;;;;;137.75;11.65;;;12.30;99.90;;;;;;4866060;28;86769;-86
2022/10/28 05:01:12;;;;;;;94.32;8.70;;;12.40;99.90;;;;;;4867218;29;89311;-88
2022/10/28 05:03:38;;;;;;;30.00;6.68;;;12.40;99.90;;;;;;4869027;28;86649;-85
2022/10/28 05:06:04;;;;;;;80.05;7.32;;;12.40;99.90;;;;;;4868126;28;86460;-85
2022/10/28 05:08:29;;;;;;;88.53;8.38;;;12.40;99.90;;;;;;4868149;29;87752;-86
2022/10/28 05:10:55;;;;;;;99.72;10.25;;;12.40;99.90;;;;;;4866064;29;88963;-85
2022/10/28 05:13:21;;;;;;;124.30;9.60;;;12.40;99.90;;;;;;4866187;29;86738;-85
2022/10/28 05:15:47;;;;;;;27.70;8.45;;;12.50;99.90;;;;;;4863206;29;87029;-86
2022/10/28 05:18:13;;;;;;;32.53;7.47;;;12.40;99.90;;;;;;4866861;28;88751;-86
2022/10/28 05:20:39;;;;;;;42.17;7.32;;;12.40;99.90;;;;;;4868055;29;89839;-85
2022/10/28 05:23:04;;;;;;;37.25;6.78;;;12.50;99.90;;;;;;4868587;28;86223;-85
2022/10/28 05:25:30;;;;;;;20.23;6.03;;;12.50;99.90;;;;;;4868273;29;86784;-85
2022/10/28 05:27:59;;;;;;;82.90;7.43;;;12.50;99.90;;;;;;4866205;29;87075;-84
2022/10/28 05:30:25;;;;;;;20.95;5.65;;;12.50;99.90;;;;;;4862014;29;88548;-85
2022/10/28 05:32:57;;;;;;;71.78;8.52;;;12.50;99.90;;;;;;4866528;29;86433;-88
2022/10/28 05:35:22;;;;;;;85.93;6.68;;;12.60;99.90;;;;;;4860217;29;85582;-87
2022/10/28 05:37:48;;;;;;;53.70;7.28;;;12.60;99.90;;;;;;4866170;29;89953;-84
2022/10/28 05:40:14;;;;;;;24.80;5.50;;;12.60;99.90;;;;;;4868031;29;89147;-87
2022/10/28 05:42:43;;;;;;;36.88;5.93;;;12.60;99.90;;;;;;4868715;28;87731;-85
2022/10/28 05:45:10;;;;;;;26.92;5.28;;;12.60;99.90;;;;;;4854162;29;86261;-88
2022/10/28 05:47:40;;;;;;;21.63;5.38;;;12.60;99.90;;;;;;4867000;28;89207;-87
2022/10/28 05:50:06;;;;;;;14.18;6.20;;;12.50;99.90;;;;;;4869860;29;86655;-87
2022/10/28 05:52:32;;;;;;;9.52;5.97;;;12.60;99.90;;;;;;4866965;29;86221;-86
2022/10/28 05:54:58;;;;;;;38.95;6.05;;;12.60;99.90;;;;;;4866511;29;86882;-86
2022/10/28 05:57:23;;;;;;;36.50;6.60;;;12.60;99.90;;;;;;4866990;29;90397;-86
2022/10/28 05:59:49;;;;;;;41.17;4.93;;;12.60;99.90;;;;;;4875857;29;89860;-89
2022/10/28 06:02:15;;;;;;;140.35;9.20;;;12.70;99.90;;;;;;4874103;28;86527;-88
2022/10/28 06:04:41;;;;;;;30.92;5.47;;;12.70;99.90;;;;;;4863635;28;86654;-86
2022/10/28 06:07:07;;;;;;;67.07;6.38;;;12.80;99.90;;;;;;4858598;29;88339;-87
2022/10/28 06:09:33;;;;;;;220.95;10.68;;;12.90;99.90;;;;;;4865172;29;89248;-85
2022/10/28 06:11:58;;;;;;;145.95;7.00;;;13.00;99.90;;;;;;4866687;29;86621;-86
2022/10/28 06:14:24;;;;;;;60.60;6.50;;;13.10;99.90;;;;;;4861708;29;86370;-86
2022/10/28 06:16:50;;;;;;;393.30;17.60;;;13.10;99.90;;;;;;4870118;28;90140;-87
2022/10/28 06:19:15;;;;;;;98.53;10.75;;;13.10;99.90;;;;;;4866802;28;89191;-86
2022/10/28 06:21:41;;;;;;;349.08;16.63;;;13.20;99.90;;;;;;4868762;28;86733;-87
2022/10/28 06:24:07;;;;;;;91.15;7.53;;;13.20;99.90;;;;;;4860869;28;85666;-86
2022/10/28 06:26:33;;;;;;;162.13;9.25;;;13.30;99.90;;;;;;4862039;28;88550;-85
2022/10/28 06:28:59;;;;;;;200.85;14.38;;;13.40;99.90;;;;;;4863147;28;87482;-85
2022/10/28 06:31:25;;;;;;;64.78;7.88;;;13.40;99.90;;;;;;4866380;29;87176;-85
2022/10/28 06:33:51;;;;;;;195.00;10.45;;;13.40;99.90;;;;;;4867196;29;86374;-84
2022/10/28 06:36:16;;;;;;;252.52;12.93;;;13.50;99.90;;;;;;4867422;29;87696;-85
2022/10/28 06:38:42;;;;;;;390.80;14.05;;;13.60;99.90;;;;;;4882059;28;88794;-85
2022/10/28 06:41:07;;;;;;;505.92;12.48;;;13.70;99.90;;;;;;4864247;28;86385;-85
2022/10/28 06:43:33;;;;;;;372.02;12.85;;;13.70;99.90;;;;;;4864692;28;87254;-84
2022/10/28 06:46:04;;;;;;;246.10;10.07;;;13.80;99.90;;;;;;4862877;28;89677;-84
2022/10/28 06:48:30;;;;;;;299.50;11.27;;;13.80;99.90;;;;;;4865655;29;87584;-84
2022/10/28 06:50:56;;;;;;;112.20;7.43;;;14.00;99.90;;;;;;4866539;28;86263;-84
2022/10/28 06:53:23;;;;;;;293.40;11.35;;;14.10;99.90;;;;;;4867083;29;86712;-85
2022/10/28 06:55:56;;;;;;;378.85;13.85;;;14.10;99.90;;;;;;4864303;29;90543;-84
2022/10/28 06:58:23;;;;;;;134.23;9.07;;;14.10;99.90;;;;;;4865793;29;88613;-84
2022/10/28 07:00:48;;;;;;;110.43;8.85;;;14.20;99.90;;;;;;4867034;28;86234;-84
2022/10/28 07:03:14;;;;;;;69.55;9.35;;;14.20;99.90;;;;;;4858070;28;86882;-84
2022/10/28 07:05:40;;;;;;;42.80;7.75;;;14.40;99.90;;;;;;4857407;28;89298;-84
2022/10/28 07:08:06;;;;;;;26.58;7.68;;;14.60;99.90;;;;;;4864451;29;87545;-85
2022/10/28 07:10:32;;;;;;;20.38;10.15;;;14.80;99.90;;;;;;4866337;29;86195;-84
2022/10/28 07:12:57;;;;;;;14.13;6.82;;;15.00;99.90;;;;;;4865085;28;85479;-84
2022/10/28 07:15:23;;;;;;;8.80;4.80;;;15.30;99.90;;;;;;4867436;28;88212;-84
2022/10/28 07:17:56;;;;;;;12.43;8.40;;;15.60;99.90;;;;;;4865897;29;90753;-84
2022/10/28 07:20:23;;;;;;;11.98;5.82;;;16.40;99.90;;;;;;4866237;28;87707;-85
2022/10/28 07:22:58;;;;;;;13.27;8.25;;;17.10;99.90;;;;;;4865985;28;86742;-85
2022/10/28 07:25:24;;;;;;;7.97;4.82;;;17.90;98.10;;;;;;4866301;28;86941;-84
2022/10/28 07:27:50;;;;;;;7.60;3.65;;;18.70;94.30;;;;;;4880024;28;90762;-84
2022/10/28 07:30:16;;;;;;;8.50;4.05;;;19.80;92.20;;;;;;4875330;29;86189;-88
2022/10/28 07:32:41;;;;;;;8.38;3.92;;;20.00;88.50;;;;;;4871828;29;86374;-88
2022/10/28 07:35:07;;;;;;;7.65;4.45;;;20.70;85.50;;;;;;4866091;29;90478;-86
2022/10/28 07:37:33;;;;;;;13.07;4.47;;;21.40;81.00;;;;;;4862794;28;88721;-87
2022/10/28 07:39:58;;;;;;;10.02;4.70;;;21.30;79.20;;;;;;4867961;29;87106;-86
2022/10/28 07:42:24;;;;;;;12.30;4.50;;;21.10;79.60;;;;;;4866103;29;86402;-85
2022/10/28 07:44:50;;;;;;;13.82;3.95;;;21.70;80.80;;;;;;4866695;29;87584;-86
2022/10/28 07:47:41;;;;;;;14.48;4.72;;;22.40;75.70;;;;;;4852551;29;87705;-88
2022/10/28 07:50:07;;;;;;;9.40;4.55;;;23.40;72.10;;;;;;4867358;28;86227;-88
2022/10/28 07:52:34;;;;;;;11.68;4.82;;;24.10;69.00;;;;;;4866557;28;86269;-87
2022/10/28 07:55:01;;;;;;;9.95;4.35;;;24.60;68.80;;;;;;4867808;28;87735;-86
2022/10/28 07:57:26;;;;;;;13.98;5.15;;;24.30;65.80;;;;;;4868986;28;87223;-87
2022/10/28 07:59:52;;;;;;;12.40;5.13;;;23.10;69.60;;;;;;4868382;28;86308;-87
2022/10/28 08:02:21;;;;;;;10.98;5.28;;;22.20;71.90;;;;;;4868257;29;85593;-87
2022/10/28 08:04:47;;;;;;;10.43;5.15;;;21.30;74.80;;;;;;4867533;28;87250;-87
2022/10/28 08:07:13;;;;;;;8.93;4.55;;;20.60;76.30;;;;;;4867656;29;87326;-88
2022/10/28 08:09:39;;;;;;;12.30;4.95;;;20.10;78.70;;;;;;4858137;28;87154;-88
2022/10/28 08:12:06;;;;;;;15.55;5.40;;;19.60;80.70;;;;;;4866893;28;87174;-89
2022/10/28 08:14:33;;;;;;;12.60;4.60;;;19.20;82.80;;;;;;4870479;29;88515;-89
2022/10/28 08:17:18;;;;;;;11.45;4.78;;;19.00;83.80;;;;;;4870992;29;87419;-88
2022/10/28 08:19:44;;;;;;;12.18;4.95;;;18.70;85.00;;;;;;4866612;29;86508;-90
2022/10/28 08:22:09;;;;;;;11.02;5.00;;;18.50;86.50;;;;;;4859755;29;86341;-90
2022/10/28 08:24:35;;;;;;;9.85;5.32;;;18.30;86.30;;;;;;4870516;29;87537;-88
2022/10/28 08:27:01;;;;;;;10.98;4.28;;;18.30;88.30;;;;;;4866084;29;90567;-89
2022/10/28 08:29:27;;;;;;;14.90;5.05;;;18.20;88.40;;;;;;4868842;29;86595;-90
2022/10/28 08:31:52;;;;;;;11.65;5.35;;;18.20;87.60;;;;;;4864971;29;86405;-89
2022/10/28 08:34:18;;;;;;;19.15;5.75;;;17.90;89.40;;;;;;4858822;29;91671;-89
2022/10/28 08:36:44;;;;;;;17.73;5.82;;;17.60;90.10;;;;;;4866379;29;87851;-90
2022/10/28 08:39:09;;;;;;;8.10;5.15;;;17.50;91.10;;;;;;4857208;29;86708;-88
2022/10/28 08:41:50;;;;;;;11.95;5.65;;;17.50;91.40;;;;;;4865257;29;86271;-89
2022/10/28 08:44:36;;;;;;;10.38;5.13;;;17.50;91.50;;;;;;4857695;29;87758;-88
2022/10/28 08:47:13;;;;;;;17.33;5.43;;;17.50;91.90;;;;;;4866658;28;86633;-87
2022/10/28 08:49:41;;;;;;;20.80;6.07;;;17.30;92.20;;;;;;4867075;29;86362;-89
2022/10/28 08:52:29;;;;;;;11.88;5.80;;;17.30;92.70;;;;;;4868689;29;85474;-88
2022/10/28 08:55:13;;;;;;;15.35;5.75;;;17.10;93.20;;;;;;4867848;28;87692;-89
2022/10/28 08:57:54;;;;;;;14.02;5.68;;;17.10;93.90;;;;;;4867564;28;87619;-88
2022/10/28 09:00:30;;;;;;;19.15;5.05;;;17.10;94.30;;;;;;4855245;28;87975;-88
2022/10/28 09:03:10;;;;;;;25.85;4.57;;;17.00;93.30;;;;;;4858201;28;86276;-88
2022/10/28 09:05:42;;;;;;;17.25;5.07;;;16.90;91.60;;;;;;4873870;28;87978;-90
2022/10/28 09:08:27;;;;;;;14.15;4.97;;;16.90;92.40;;;;;;4868405;28;87464;-89
2022/10/28 09:11:31;;;;;;;12.18;4.85;;;17.00;94.40;;;;;;4869072;29;86307;-85
2022/10/28 09:14:16;;;;;;;14.45;5.45;;;17.20;94.60;;;;;;4859579;29;86501;-89
2022/10/28 09:16:46;;;;;;;13.50;5.93;;;17.30;94.90;;;;;;4869566;29;87094;-89
2022/10/28 09:19:33;;;;;;;11.50;4.72;;;17.20;95.30;;;;;;4872285;29;87313;-85
2022/10/28 09:22:18;;;;;;;17.13;5.28;;;17.20;95.10;;;;;;4865353;29;86908;-85
2022/10/28 09:24:51;;;;;;;11.55;4.10;;;17.30;95.40;;;;;;4865146;29;86871;-85
2022/10/28 09:27:42;;;;;;;10.25;3.85;;;17.40;95.10;;;;;;4864561;29;88073;-85
2022/10/28 09:30:20;;;;;;;11.85;4.30;;;17.50;94.40;;;;;;4866784;28;88479;-87
2022/10/28 09:33:04;;;;;;;10.77;4.00;;;17.70;93.20;;;;;;4862876;28;86306;-90
2022/10/28 09:35:35;;;;;;;10.25;3.90;;;17.70;92.90;;;;;;4868173;29;86501;-89
2022/10/28 09:38:25;;;;;;;10.10;3.85;;;18.00;92.80;;;;;;4847538;29;87762;-86
2022/10/28 09:40:59;;;;;;;11.52;4.22;;;18.10;91.80;;;;;;4861802;29;87470;-90
2022/10/28 09:43:30;;;;;;;11.80;4.20;;;18.30;91.30;;;;;;4856998;29;86127;-89
2022/10/28 09:46:12;;;;;;;12.70;4.45;;;18.40;90.60;;;;;;4862755;29;85504;-89
2022/10/28 09:48:45;;;;;;;20.88;4.75;;;18.50;90.60;;;;;;4861841;29;87832;-89
2022/10/28 09:51:33;;;;;;;9.45;4.53;;;18.70;90.20;;;;;;4867232;29;86742;-89
2022/10/28 09:54:00;;;;;;;12.43;4.47;;;18.90;89.40;;;;;;4846295;29;87519;-88
2022/10/28 09:56:27;;;;;;;18.65;4.60;;;18.90;89.90;;;;;;4860853;29;86329;-88
2022/10/28 09:58:57;;;;;;;14.05;3.92;;;19.00;89.10;;;;;;4852303;29;87601;-87
2022/10/28 10:01:23;;;;;;;12.52;3.42;;;19.10;88.50;;;;;;4861253;29;87469;-87
2022/10/28 10:03:50;;;;;;;11.60;3.97;;;19.20;88.10;;;;;;4862437;28;86301;-83
2022/10/28 10:06:38;;;;;;;11.82;3.45;;;19.30;86.60;;;;;;4865357;29;87153;-82
2022/10/28 10:09:04;;;;;;;10.57;3.80;;;19.50;86.80;;;;;;4866621;28;90187;-82
2022/10/28 10:11:39;;;;;;;12.15;3.60;;;19.60;86.60;;;;;;4858810;28;87146;-82
2022/10/28 10:14:11;;;;;;;14.38;4.60;;;19.80;85.80;;;;;;4862157;28;86662;-82
2022/10/28 10:16:54;;;;;;;10.52;3.95;;;20.00;84.60;;;;;;4859542;28;86638;-83
2022/10/28 10:19:19;;;;;;;12.23;4.47;;;19.90;84.80;;;;;;4863995;28;87613;-83
2022/10/28 10:21:50;;;;;;;9.00;4.18;;;20.20;84.80;;;;;;4853096;28;87607;-82
2022/10/28 10:24:25;;;;;;;15.02;3.97;;;20.30;82.80;;;;;;4862377;28;86948;-82
2022/10/28 10:26:52;;;;;;;16.70;4.65;;;20.50;82.80;;;;;;4858332;28;86733;-74
2022/10/28 10:29:19;;;;;;;15.05;4.85;;;20.40;81.50;;;;;;4861726;28;88607;-77
2022/10/28 10:31:46;;;;;;;11.63;4.85;;;20.40;86.80;;;;;;4865288;28;87905;-79
2022/10/28 10:34:22;;;;;;;10.95;4.63;;;20.40;81.70;;;;;;4866594;29;86633;-78
2022/10/28 10:36:54;;;;;;;12.15;4.35;;;20.20;81.60;;;;;;4865348;28;85615;-79
2022/10/28 10:39:27;;;;;;;10.25;4.63;;;20.20;83.20;;;;;;4864312;28;87779;-76
2022/10/28 10:41:56;;;;;;;7.22;4.15;;;20.10;83.20;;;;;;4869509;28;86903;-77
2022/10/28 10:44:23;;;;;;;8.43;4.05;;;20.20;83.00;;;;;;4863566;28;87912;-76
2022/10/28 10:47:01;;;;;;;9.45;4.22;;;20.00;82.80;;;;;;4860502;28;86885;-80
2022/10/28 10:49:27;;;;;;;9.43;3.70;;;20.30;83.50;;;;;;4863189;28;87414;-76
2022/10/28 10:51:56;;;;;;;11.10;5.03;;;20.70;83.10;;;;;;4857691;28;87175;-77
2022/10/28 10:54:24;;;;;;;7.38;4.05;;;20.80;81.20;;;;;;4869399;28;86293;-81
2022/10/28 10:56:50;;;;;;;8.35;3.90;;;20.50;80.90;;;;;;4862534;29;86884;-78
2022/10/28 10:59:30;;;;;;;11.18;4.25;;;20.40;83.90;;;;;;4858726;29;87194;-77
2022/10/28 11:01:57;;;;;;;14.13;5.32;;;20.30;85.30;;;;;;4864371;29;87201;-76
2022/10/28 11:04:25;;;;;;;10.00;4.70;;;20.20;83.40;;;;;;4856634;29;86581;-82
2022/10/28 11:06:54;;;;;;;10.13;3.97;;;20.20;82.70;;;;;;4866669;28;86792;-80
2022/10/28 11:09:30;;;;;;;9.15;3.55;;;20.10;82.40;;;;;;4866472;29;88692;-81
2022/10/28 11:11:56;;;;;;;12.50;4.00;;;20.10;82.00;;;;;;4857287;28;88064;-79
2022/10/28 11:14:29;;;;;;;8.25;3.38;;;20.00;80.80;;;;;;4855308;29;87334;-79
2022/10/28 11:16:57;;;;;;;13.45;4.00;;;19.90;81.20;;;;;;4847136;29;87358;-79
2022/10/28 11:19:23;;;;;;;15.48;5.22;;;19.80;81.80;;;;;;4850571;29;87397;-80
2022/10/28 11:21:57;;;;;;;12.23;4.72;;;19.70;84.20;;;;;;4866302;29;89592;-79
2022/10/28 11:24:51;;;;;;;10.10;3.92;;;19.60;84.10;;;;;;4867202;28;86500;-80
2022/10/28 11:27:49;;;;;;;14.63;4.53;;;19.50;84.80;;;;;;4859626;29;85567;-78
2022/10/28 11:30:18;;;;;;;14.52;3.83;;;19.40;86.80;;;;;;4863701;29;87092;-79
2022/10/28 11:33:12;;;;;;;12.07;4.30;;;19.30;87.10;;;;;;4861380;28;87938;-79
2022/10/28 11:36:14;;;;;;;12.05;4.22;;;19.30;87.30;;;;;;4853463;29;87427;-79
2022/10/28 11:39:07;;;;;;;12.07;4.38;;;19.10;87.70;;;;;;4856673;29;86705;-79
2022/10/28 11:41:50;;;;;;;14.20;4.40;;;19.10;89.00;;;;;;4863149;29;87337;-80
2022/10/28 11:44:24;;;;;;;9.27;4.30;;;19.00;89.20;;;;;;4865487;29;88783;-80
2022/10/28 11:47:28;;;;;;;16.20;4.82;;;18.90;89.70;;;;;;4864350;29;86730;-79
2022/10/28 11:50:00;;;;;;;13.43;4.85;;;18.90;89.00;;;;;;4856474;29;86285;-81
2022/10/28 11:52:59;;;;;;;11.80;4.07;;;18.90;89.10;;;;;;4854579;29;87768;-80
2022/10/28 11:55:47;;;;;;;11.00;4.95;;;18.90;88.40;;;;;;4865396;28;86683;-79
2022/10/28 11:58:32;;;;;;;13.18;4.18;;;18.90;88.50;;;;;;4862246;29;86699;-81
2022/10/28 12:01:09;;;;;;;13.35;4.20;;;18.90;88.40;;;;;;4858513;29;86723;-79
2022/10/28 12:03:50;;;;;;;13.02;4.72;;;18.90;88.20;;;;;;4865159;29;88980;-78
2022/10/28 12:06:40;;;;;;;12.13;4.90;;;18.90;87.60;;;;;;4862783;28;87658;-78
2022/10/28 12:09:44;;;;;;;10.73;4.35;;;18.90;87.60;;;;;;4858066;29;86553;-79
2022/10/28 12:12:47;;;;;;;10.15;4.40;;;18.90;88.50;;;;;;4858042;29;86595;-79
2022/10/28 12:15:30;;;;;;;13.95;4.70;;;18.80;88.70;;;;;;4859708;29;87050;-79
2022/10/28 12:18:03;;;;;;;14.48;4.70;;;18.70;88.70;;;;;;4852306;29;86761;-80
2022/10/28 12:20:46;;;;;;;14.40;5.00;;;18.60;88.80;;;;;;4862609;28;86652;-80
2022/10/28 12:23:16;;;;;;;12.70;5.03;;;18.60;90.00;;;;;;4869261;28;87994;-80
2022/10/28 12:25:46;;;;;;;13.43;4.55;;;18.70;89.50;;;;;;4862175;29;89103;-81
2022/10/28 12:28:44;;;;;;;7.30;3.95;;;18.70;89.60;;;;;;4859562;28;86574;-83
2022/10/28 12:31:26;;;;;;;13.45;4.72;;;18.80;88.10;;;;;;4859829;29;87526;-83
2022/10/28 12:33:56;;;;;;;14.57;4.68;;;18.90;87.80;;;;;;4856700;28;86938;-80
2022/10/28 12:36:45;;;;;;;21.15;4.45;;;18.90;87.90;;;;;;4860565;29;87588;-80
2022/10/28 12:39:17;;;;;;;12.25;4.78;;;19.00;88.10;;;;;;4856242;29;87646;-80
2022/10/28 12:41:49;;;;;;;17.50;4.90;;;19.10;87.40;;;;;;4862589;29;86292;-80
2022/10/28 12:44:23;;;;;;;11.82;4.85;;;19.00;87.80;;;;;;4863421;29;87078;-80
2022/10/28 12:47:20;;;;;;;14.50;4.50;;;19.10;87.30;;;;;;4854758;29;87212;-80
2022/10/28 12:50:01;;;;;;;14.80;4.55;;;19.20;87.10;;;;;;4864252;29;86680;-81
2022/10/28 12:52:46;;;;;;;11.05;4.47;;;19.20;85.60;;;;;;4863379;28;86275;-81
2022/10/28 12:55:14;;;;;;;10.02;4.55;;;19.20;85.90;;;;;;4866101;29;86396;-82
2022/10/28 12:57:43;;;;;;;14.93;4.65;;;19.20;85.30;;;;;;4865420;28;88673;-80
2022/10/28 13:00:12;;;;;;;10.80;4.00;;;19.30;84.00;;;;;;4864020;28;87486;-80
2022/10/28 13:02:44;;;;;;;10.23;3.70;;;19.30;82.10;;;;;;4861180;29;87049;-80
2022/10/28 13:05:23;;;;;;;12.60;4.40;;;19.30;79.80;;;;;;4864003;28;86716;-80
2022/10/28 13:08:22;;;;;;;9.07;3.28;;;19.40;77.80;;;;;;4860728;29;87037;-83
2022/10/28 13:11:16;;;;;;;30.55;5.78;;;19.40;77.90;;;;;;4865548;29;87241;-83
2022/10/28 13:14:11;;;;;;;33.38;4.45;;;19.50;78.40;;;;;;4860745;29;86600;-82
2022/10/28 13:16:40;;;;;;;12.45;3.42;;;19.50;77.60;;;;;;4856470;29;85537;-83
2022/10/28 13:19:30;;;;;;;8.85;3.15;;;19.50;77.20;;;;;;4854681;29;87849;-83
2022/10/28 13:22:20;;;;;;;21.35;5.38;;;19.60;76.60;;;;;;4856503;29;86574;-83
2022/10/28 13:24:51;;;;;;;18.23;4.05;;;19.60;79.40;;;;;;4856612;29;87222;-82
2022/10/28 13:27:18;;;;;;;14.63;2.70;;;19.70;78.80;;;;;;4860130;29;86303;-82
2022/10/28 13:29:54;;;;;;;19.65;3.35;;;19.70;78.10;;;;;;4858952;29;86735;-84
2022/10/28 13:32:31;;;;;;;;;;;19.80;76.60;;;;;;4861026;28;87360;-80
2022/10/28 13:34:58;;;;;;;11.10;3.70;;;19.80;79.30;;;;;;4861651;28;86566;-84
2022/10/28 13:37:32;;;;;;;12.20;3.13;;;19.80;80.30;;;;;;4864465;28;86907;-81
2022/10/28 13:39:57;;;;;;;7.93;3.20;;;19.80;81.10;;;;;;4860557;29;87769;-84
2022/10/28 13:42:23;;;;;;;28.20;3.45;;;19.80;80.20;;;;;;4864158;29;86873;-81
2022/10/28 13:45:00;;;;;;;14.23;3.55;;;19.80;80.50;;;;;;4862799;29;86295;-82
2022/10/28 13:47:26;;;;;;;17.25;3.15;;;19.80;79.80;;;;;;4862722;28;87488;-83
2022/10/28 13:50:07;;;;;;;14.10;3.13;;;19.80;80.00;;;;;;4859885;28;87572;-82
2022/10/28 13:53:25;;;;;;;8.77;2.63;;;19.80;79.50;;;;;;4863377;28;88657;-83
2022/10/28 13:55:56;;;;;;;28.35;4.20;;;19.90;79.10;;;;;;4844826;28;87106;-83
2022/10/28 13:58:25;;;;;;;13.73;3.70;;;19.90;79.20;;;;;;4860091;29;86702;-83
2022/10/28 14:00:51;;;;;;;12.30;3.70;;;19.90;79.50;;;;;;4864645;28;87091;-83
2022/10/28 14:03:23;;;;;;;14.55;4.07;;;19.80;80.50;;;;;;4861036;28;87351;-86
2022/10/28 14:05:52;;;;;;;15.07;4.70;;;19.80;81.00;;;;;;4861958;28;86294;-84
2022/10/28 14:08:28;;;;;;;12.35;4.78;;;19.80;81.40;;;;;;4860744;28;85812;-84
2022/10/28 14:11:01;;;;;;;24.77;4.75;;;19.80;82.10;;;;;;4856450;29;87921;-83
2022/10/28 14:13:28;;;;;;;10.55;3.67;;;19.70;82.20;;;;;;4860449;29;86536;-83
2022/10/28 14:16:22;;;;;;;10.57;3.88;;;19.70;82.80;;;;;;4855702;29;88080;-83
2022/10/28 14:19:05;;;;;;;18.15;4.88;;;19.70;82.80;;;;;;4858961;29;86779;-84
2022/10/28 14:21:44;;;;;;;11.57;5.20;;;19.70;83.90;;;;;;4862726;29;87094;-82
2022/10/28 14:24:36;;;;;;;11.25;4.82;;;19.70;83.60;;;;;;4862648;28;86634;-83
2022/10/28 14:27:08;;;;;;;14.18;6.57;;;19.70;84.20;;;;;;4854731;29;87138;-83
2022/10/28 14:30:12;;;;;;;13.93;7.60;;;19.70;83.40;;;;;;4860658;29;86322;-83
2022/10/28 14:32:40;;;;;;;17.92;4.95;;;19.80;83.50;;;;;;4861897;29;87710;-83
2022/10/28 14:35:09;;;;;;;13.10;4.28;;;19.80;85.40;;;;;;4859778;29;86752;-84
2022/10/28 14:38:10;;;;;;;13.23;4.70;;;19.80;87.50;;;;;;4860055;29;86516;-83
2022/10/28 14:41:05;;;;;;;15.02;4.03;;;19.80;87.00;;;;;;4860044;29;86307;-83
2022/10/28 14:43:57;;;;;;;14.90;5.30;;;19.70;85.70;;;;;;4858080;29;87961;-85
2022/10/28 14:46:52;;;;;;;14.68;4.93;;;19.60;86.10;;;;;;4857731;29;88036;-84
2022/10/28 14:49:22;;;;;;;15.80;6.47;;;19.50;86.20;;;;;;4854716;28;86680;-82
2022/10/28 14:51:49;;;;;;;14.07;6.60;;;19.40;85.70;;;;;;4857581;28;86473;-82
2022/10/28 14:54:28;;;;;;;20.23;8.15;;;19.20;85.60;;;;;;4860551;29;87589;-82
2022/10/28 14:56:56;;;;;;;17.80;7.57;;;19.00;85.80;;;;;;4862395;29;86641;-84
2022/10/28 14:59:43;;;;;;;14.88;5.72;;;18.80;85.80;;;;;;4855336;29;86296;-85
2022/10/28 15:02:17;;;;;;;13.73;5.03;;;18.60;85.30;;;;;;4860722;29;85689;-82
2022/10/28 15:04:44;;;;;;;12.13;5.03;;;18.40;85.80;;;;;;4861654;29;87735;-82
2022/10/28 15:07:13;;;;;;;11.40;5.40;;;18.30;86.60;;;;;;4862231;28;87569;-83
2022/10/28 15:09:39;;;;;;;10.95;5.65;;;18.20;87.00;;;;;;4855195;28;87210;-82
2022/10/28 15:12:15;;;;;;;11.40;5.43;;;18.10;87.70;;;;;;4860366;28;86447;-82
2022/10/28 15:14:45;;;;;;;15.07;5.47;;;18.10;88.30;;;;;;4868590;28;88192;-82
2022/10/28 15:17:24;;;;;;;49.80;8.55;;;18.10;88.20;;;;;;4857352;29;87002;-81
2022/10/28 15:19:55;;;;;;;17.80;5.50;;;18.10;88.40;;;;;;4854511;29;86773;-81
2022/10/28 15:22:30;;;;;;;19.48;5.85;;;18.10;88.20;;;;;;4861063;28;86812;-83
2022/10/28 15:25:20;;;;;;;12.38;5.50;;;18.10;88.30;;;;;;4859303;28;87298;-84
2022/10/28 15:27:49;;;;;;;17.25;6.40;;;18.10;88.50;;;;;;4855512;28;86675;-82
2022/10/28 15:30:22;;;;;;;15.55;5.53;;;18.10;88.90;;;;;;4860511;29;86703;-82
2022/10/28 15:32:52;;;;;;;18.88;6.75;;;18.10;89.20;;;;;;4859899;28;86295;-82
2022/10/28 15:35:45;;;;;;;12.13;5.22;;;18.10;89.50;;;;;;4858543;28;91654;-81
2022/10/28 15:38:58;;;;;;;16.75;5.82;;;18.00;89.40;;;;;;4860023;28;87181;-82
2022/10/28 15:41:29;;;;;;;22.30;6.95;;;17.90;89.60;;;;;;4859906;28;86988;-81
2022/10/28 15:43:58;;;;;;;13.93;6.15;;;17.80;90.00;;;;;;4857860;28;86930;-81
2022/10/28 15:46:25;;;;;;;13.93;5.38;;;17.70;90.00;;;;;;4862418;28;87744;-82
2022/10/28 15:48:55;;;;;;;13.95;5.10;;;17.60;90.20;;;;;;4856881;29;87194;-82